Terminal Aerodrome Forecast
Issued by NWS Charleston, WV

Home | Current Version | Previous Version | Text Only | Print | Product List | Glossary On
Versions: 1 2 3 4 5 6 7 8 9 10 11 12 13 14 15 16 17 18 19 20 21 22 23
291
FTUS41 KRLX 271755
TAFEKN
TAF
KEKN 271755Z 2718/2818 26009G17KT P6SM OVC050
     FM280000 VRB03KT P6SM BKN050
      TEMPO 2800/2803 BKN025
     FM280900 00000KT 6SM SHRA OVC050
     FM281100 VRB03KT 5SM SHRA OVC040=

USA.gov is the U.S. government's official web portal to all federal, state and local government web resources and services.